sensor_id;sensor_type;location;lat;lon;timestamp;P1;durP1;ratioP1;P2;durP2;ratioP2
4182;SDS011;2105;52.300;9.182;2023-06-14T00:01:51;16.13;;;14.77;;
4182;SDS011;2105;52.300;9.182;2023-06-14T00:04:18;16.10;;;14.90;;
4182;SDS011;2105;52.300;9.182;2023-06-14T00:06:45;16.00;;;14.80;;
4182;SDS011;2105;52.300;9.182;2023-06-14T00:09:13;16.63;;;15.23;;
4182;SDS011;2105;52.300;9.182;2023-06-14T00:11:42;15.90;;;14.60;;
4182;SDS011;2105;52.300;9.182;2023-06-14T00:14:12;16.70;;;14.90;;
4182;SDS011;2105;52.300;9.182;2023-06-14T00:16:39;15.27;;;14.23;;
4182;SDS011;2105;52.300;9.182;2023-06-14T00:19:07;15.43;;;14.20;;
4182;SDS011;2105;52.300;9.182;2023-06-14T00:21:35;15.30;;;14.10;;
4182;SDS011;2105;52.300;9.182;2023-06-14T00:24:03;16.37;;;14.97;;
4182;SDS011;2105;52.300;9.182;2023-06-14T00:26:30;17.63;;;16.10;;
4182;SDS011;2105;52.300;9.182;2023-06-14T00:28:57;17.00;;;15.43;;
4182;SDS011;2105;52.300;9.182;2023-06-14T00:31:25;16.13;;;14.60;;
4182;SDS011;2105;52.300;9.182;2023-06-14T00:33:52;16.20;;;14.90;;
4182;SDS011;2105;52.300;9.182;2023-06-14T00:36:18;16.03;;;14.93;;
4182;SDS011;2105;52.300;9.182;2023-06-14T00:38:45;17.07;;;15.30;;
4182;SDS011;2105;52.300;9.182;2023-06-14T00:41:12;15.93;;;14.83;;
4182;SDS011;2105;52.300;9.182;2023-06-14T00:43:38;16.40;;;15.20;;
4182;SDS011;2105;52.300;9.182;2023-06-14T00:46:05;15.97;;;14.87;;
4182;SDS011;2105;52.300;9.182;2023-06-14T00:48:33;16.90;;;15.20;;
4182;SDS011;2105;52.300;9.182;2023-06-14T00:51:01;17.03;;;15.40;;
4182;SDS011;2105;52.300;9.182;2023-06-14T00:53:29;16.50;;;15.30;;
4182;SDS011;2105;52.300;9.182;2023-06-14T00:55:58;16.03;;;14.93;;
4182;SDS011;2105;52.300;9.182;2023-06-14T00:58:26;15.97;;;14.73;;
4182;SDS011;2105;52.300;9.182;2023-06-14T01:00:53;15.80;;;14.70;;
4182;SDS011;2105;52.300;9.182;2023-06-14T01:03:21;17.17;;;15.57;;
4182;SDS011;2105;52.300;9.182;2023-06-14T01:05:49;15.70;;;14.50;;
4182;SDS011;2105;52.300;9.182;2023-06-14T01:08:24;15.67;;;14.57;;
4182;SDS011;2105;52.300;9.182;2023-06-14T01:10:59;15.97;;;14.87;;
4182;SDS011;2105;52.300;9.182;2023-06-14T01:13:32;16.53;;;15.20;;
4182;SDS011;2105;52.300;9.182;2023-06-14T01:16:00;16.43;;;15.13;;
4182;SDS011;2105;52.300;9.182;2023-06-14T01:18:28;15.63;;;14.53;;
4182;SDS011;2105;52.300;9.182;2023-06-14T01:20:56;16.13;;;14.80;;
4182;SDS011;2105;52.300;9.182;2023-06-14T01:23:24;16.93;;;15.33;;
4182;SDS011;2105;52.300;9.182;2023-06-14T01:25:57;16.23;;;15.03;;
4182;SDS011;2105;52.300;9.182;2023-06-14T01:28:25;16.10;;;14.80;;
4182;SDS011;2105;52.300;9.182;2023-06-14T01:30:56;15.23;;;14.03;;
4182;SDS011;2105;52.300;9.182;2023-06-14T01:33:29;15.00;;;13.87;;
4182;SDS011;2105;52.300;9.182;2023-06-14T01:35:57;15.37;;;13.93;;
4182;SDS011;2105;52.300;9.182;2023-06-14T01:38:26;15.27;;;14.00;;
4182;SDS011;2105;52.300;9.182;2023-06-14T01:40:54;14.00;;;12.80;;
4182;SDS011;2105;52.300;9.182;2023-06-14T01:43:22;16.83;;;13.30;;
4182;SDS011;2105;52.300;9.182;2023-06-14T01:45:51;13.57;;;12.47;;
4182;SDS011;2105;52.300;9.182;2023-06-14T01:48:18;13.30;;;12.10;;
4182;SDS011;2105;52.300;9.182;2023-06-14T01:50:46;13.43;;;12.43;;
4182;SDS011;2105;52.300;9.182;2023-06-14T01:53:14;13.20;;;12.30;;
4182;SDS011;2105;52.300;9.182;2023-06-14T01:55:42;12.80;;;11.90;;
4182;SDS011;2105;52.300;9.182;2023-06-14T01:58:13;12.93;;;11.93;;
4182;SDS011;2105;52.300;9.182;2023-06-14T02:00:41;13.03;;;11.83;;
4182;SDS011;2105;52.300;9.182;2023-06-14T02:03:08;13.13;;;12.10;;
4182;SDS011;2105;52.300;9.182;2023-06-14T02:05:36;12.67;;;11.57;;
4182;SDS011;2105;52.300;9.182;2023-06-14T02:08:04;12.47;;;11.47;;
4182;SDS011;2105;52.300;9.182;2023-06-14T02:10:31;15.03;;;11.53;;
4182;SDS011;2105;52.300;9.182;2023-06-14T02:12:59;12.20;;;10.90;;
4182;SDS011;2105;52.300;9.182;2023-06-14T02:15:25;11.17;;;10.37;;
4182;SDS011;2105;52.300;9.182;2023-06-14T02:17:59;11.90;;;10.73;;
4182;SDS011;2105;52.300;9.182;2023-06-14T02:20:27;11.77;;;10.77;;
4182;SDS011;2105;52.300;9.182;2023-06-14T02:22:53;13.37;;;11.07;;
4182;SDS011;2105;52.300;9.182;2023-06-14T02:25:20;10.93;;;10.03;;
4182;SDS011;2105;52.300;9.182;2023-06-14T02:27:47;12.10;;;11.00;;
4182;SDS011;2105;52.300;9.182;2023-06-14T02:30:15;12.23;;;11.00;;
4182;SDS011;2105;52.300;9.182;2023-06-14T02:32:41;12.07;;;10.93;;
4182;SDS011;2105;52.300;9.182;2023-06-14T02:35:08;13.70;;;10.93;;
4182;SDS011;2105;52.300;9.182;2023-06-14T02:37:35;11.03;;;10.27;;
4182;SDS011;2105;52.300;9.182;2023-06-14T02:40:02;10.87;;;9.90;;
4182;SDS011;2105;52.300;9.182;2023-06-14T02:42:30;10.83;;;9.43;;
4182;SDS011;2105;52.300;9.182;2023-06-14T02:44:57;9.50;;;7.90;;
4182;SDS011;2105;52.300;9.182;2023-06-14T02:47:25;8.33;;;7.63;;
4182;SDS011;2105;52.300;9.182;2023-06-14T02:49:52;12.43;;;8.13;;
4182;SDS011;2105;52.300;9.182;2023-06-14T02:52:19;9.80;;;8.10;;
4182;SDS011;2105;52.300;9.182;2023-06-14T02:54:46;8.30;;;7.53;;
4182;SDS011;2105;52.300;9.182;2023-06-14T02:57:13;8.70;;;7.80;;
4182;SDS011;2105;52.300;9.182;2023-06-14T02:59:40;9.40;;;8.20;;
4182;SDS011;2105;52.300;9.182;2023-06-14T03:02:07;8.03;;;7.30;;
4182;SDS011;2105;52.300;9.182;2023-06-14T03:04:35;8.37;;;7.40;;
4182;SDS011;2105;52.300;9.182;2023-06-14T03:07:03;9.70;;;7.13;;
4182;SDS011;2105;52.300;9.182;2023-06-14T03:09:34;7.63;;;6.50;;
4182;SDS011;2105;52.300;9.182;2023-06-14T03:12:02;15.73;;;6.83;;
4182;SDS011;2105;52.300;9.182;2023-06-14T03:14:28;7.00;;;6.30;;
4182;SDS011;2105;52.300;9.182;2023-06-14T03:16:56;7.00;;;6.40;;
4182;SDS011;2105;52.300;9.182;2023-06-14T03:19:23;7.33;;;6.33;;
4182;SDS011;2105;52.300;9.182;2023-06-14T03:21:52;8.50;;;6.43;;
4182;SDS011;2105;52.300;9.182;2023-06-14T03:24:21;18.87;;;7.13;;
4182;SDS011;2105;52.300;9.182;2023-06-14T03:26:48;8.23;;;6.70;;
4182;SDS011;2105;52.300;9.182;2023-06-14T03:29:15;7.33;;;6.60;;
4182;SDS011;2105;52.300;9.182;2023-06-14T03:31:56;7.60;;;6.63;;
4182;SDS011;2105;52.300;9.182;2023-06-14T03:34:23;7.90;;;7.20;;
4182;SDS011;2105;52.300;9.182;2023-06-14T03:36:52;8.40;;;6.90;;
4182;SDS011;2105;52.300;9.182;2023-06-14T03:39:18;8.60;;;6.90;;
4182;SDS011;2105;52.300;9.182;2023-06-14T03:41:45;8.40;;;7.40;;
4182;SDS011;2105;52.300;9.182;2023-06-14T03:44:13;7.90;;;7.17;;
4182;SDS011;2105;52.300;9.182;2023-06-14T03:46:41;8.00;;;6.93;;
4182;SDS011;2105;52.300;9.182;2023-06-14T03:49:08;7.20;;;6.50;;
4182;SDS011;2105;52.300;9.182;2023-06-14T03:51:36;7.07;;;6.37;;
4182;SDS011;2105;52.300;9.182;2023-06-14T03:54:04;12.40;;;6.77;;
4182;SDS011;2105;52.300;9.182;2023-06-14T03:56:31;9.80;;;5.90;;
4182;SDS011;2105;52.300;9.182;2023-06-14T03:58:57;8.30;;;7.03;;
4182;SDS011;2105;52.300;9.182;2023-06-14T04:01:24;9.23;;;6.93;;
4182;SDS011;2105;52.300;9.182;2023-06-14T04:03:52;7.47;;;6.70;;
4182;SDS011;2105;52.300;9.182;2023-06-14T04:06:19;8.20;;;7.40;;
4182;SDS011;2105;52.300;9.182;2023-06-14T04:08:45;9.27;;;7.47;;
4182;SDS011;2105;52.300;9.182;2023-06-14T04:11:15;8.70;;;6.73;;
4182;SDS011;2105;52.300;9.182;2023-06-14T04:13:42;10.27;;;7.13;;
4182;SDS011;2105;52.300;9.182;2023-06-14T04:16:09;8.70;;;7.80;;
4182;SDS011;2105;52.300;9.182;2023-06-14T04:18:36;9.83;;;7.07;;
4182;SDS011;2105;52.300;9.182;2023-06-14T04:21:03;9.17;;;7.60;;
4182;SDS011;2105;52.300;9.182;2023-06-14T04:23:31;12.60;;;8.40;;
4182;SDS011;2105;52.300;9.182;2023-06-14T04:25:57;10.90;;;8.43;;
4182;SDS011;2105;52.300;9.182;2023-06-14T04:28:28;10.17;;;7.60;;
4182;SDS011;2105;52.300;9.182;2023-06-14T04:30:55;13.60;;;8.23;;
4182;SDS011;2105;52.300;9.182;2023-06-14T04:33:26;8.70;;;7.90;;
4182;SDS011;2105;52.300;9.182;2023-06-14T04:35:53;8.40;;;7.70;;
4182;SDS011;2105;52.300;9.182;2023-06-14T04:38:21;8.67;;;7.97;;
4182;SDS011;2105;52.300;9.182;2023-06-14T04:40:50;9.60;;;8.60;;
4182;SDS011;2105;52.300;9.182;2023-06-14T04:43:18;14.90;;;9.53;;
4182;SDS011;2105;52.300;9.182;2023-06-14T04:45:53;10.40;;;9.60;;
4182;SDS011;2105;52.300;9.182;2023-06-14T04:48:21;11.87;;;10.50;;
4182;SDS011;2105;52.300;9.182;2023-06-14T04:50:48;13.00;;;10.90;;
4182;SDS011;2105;52.300;9.182;2023-06-14T04:53:18;12.60;;;11.13;;
4182;SDS011;2105;52.300;9.182;2023-06-14T04:55:46;17.30;;;11.90;;
4182;SDS011;2105;52.300;9.182;2023-06-14T04:58:13;12.37;;;11.47;;
4182;SDS011;2105;52.300;9.182;2023-06-14T05:00:40;16.40;;;11.50;;
4182;SDS011;2105;52.300;9.182;2023-06-14T05:03:09;13.50;;;12.13;;
4182;SDS011;2105;52.300;9.182;2023-06-14T05:05:38;13.10;;;12.13;;
4182;SDS011;2105;52.300;9.182;2023-06-14T05:08:05;14.40;;;12.50;;
4182;SDS011;2105;52.300;9.182;2023-06-14T05:10:32;13.10;;;12.10;;
4182;SDS011;2105;52.300;9.182;2023-06-14T05:13:00;13.70;;;12.60;;
4182;SDS011;2105;52.300;9.182;2023-06-14T05:15:26;13.90;;;12.70;;
4182;SDS011;2105;52.300;9.182;2023-06-14T05:17:54;14.47;;;13.27;;
4182;SDS011;2105;52.300;9.182;2023-06-14T05:20:22;13.90;;;12.90;;
4182;SDS011;2105;52.300;9.182;2023-06-14T05:22:50;14.30;;;13.20;;
4182;SDS011;2105;52.300;9.182;2023-06-14T05:25:17;16.10;;;14.50;;
4182;SDS011;2105;52.300;9.182;2023-06-14T05:27:44;15.43;;;14.23;;
4182;SDS011;2105;52.300;9.182;2023-06-14T05:30:11;15.50;;;14.00;;
4182;SDS011;2105;52.300;9.182;2023-06-14T05:32:39;15.53;;;14.00;;
4182;SDS011;2105;52.300;9.182;2023-06-14T05:35:06;16.07;;;14.63;;
4182;SDS011;2105;52.300;9.182;2023-06-14T05:37:34;15.33;;;14.23;;
4182;SDS011;2105;52.300;9.182;2023-06-14T05:40:01;15.83;;;14.53;;
4182;SDS011;2105;52.300;9.182;2023-06-14T05:42:30;15.80;;;14.33;;
4182;SDS011;2105;52.300;9.182;2023-06-14T05:44:57;16.53;;;15.13;;
4182;SDS011;2105;52.300;9.182;2023-06-14T05:47:24;15.97;;;14.70;;
4182;SDS011;2105;52.300;9.182;2023-06-14T05:49:50;15.73;;;14.33;;
4182;SDS011;2105;52.300;9.182;2023-06-14T05:52:17;15.13;;;13.93;;
4182;SDS011;2105;52.300;9.182;2023-06-14T05:54:45;15.50;;;14.30;;
4182;SDS011;2105;52.300;9.182;2023-06-14T05:57:13;15.80;;;14.60;;
4182;SDS011;2105;52.300;9.182;2023-06-14T05:59:39;15.40;;;14.20;;
4182;SDS011;2105;52.300;9.182;2023-06-14T06:02:06;15.47;;;14.47;;
4182;SDS011;2105;52.300;9.182;2023-06-14T06:04:33;15.17;;;14.17;;
4182;SDS011;2105;52.300;9.182;2023-06-14T06:06:59;16.50;;;14.90;;
4182;SDS011;2105;52.300;9.182;2023-06-14T06:09:26;15.87;;;14.47;;
4182;SDS011;2105;52.300;9.182;2023-06-14T06:11:54;15.60;;;14.27;;
4182;SDS011;2105;52.300;9.182;2023-06-14T06:14:21;15.43;;;14.37;;
4182;SDS011;2105;52.300;9.182;2023-06-14T06:16:48;15.60;;;14.50;;
4182;SDS011;2105;52.300;9.182;2023-06-14T06:19:15;15.70;;;14.33;;
4182;SDS011;2105;52.300;9.182;2023-06-14T06:21:41;16.00;;;14.90;;
4182;SDS011;2105;52.300;9.182;2023-06-14T06:24:08;15.77;;;14.67;;
4182;SDS011;2105;52.300;9.182;2023-06-14T06:26:35;15.73;;;14.73;;
4182;SDS011;2105;52.300;9.182;2023-06-14T06:29:03;17.07;;;15.50;;
4182;SDS011;2105;52.300;9.182;2023-06-14T06:31:30;16.70;;;15.00;;
4182;SDS011;2105;52.300;9.182;2023-06-14T06:33:56;18.63;;;15.33;;
4182;SDS011;2105;52.300;9.182;2023-06-14T06:36:23;16.63;;;15.40;;
4182;SDS011;2105;52.300;9.182;2023-06-14T06:38:50;18.00;;;16.67;;
4182;SDS011;2105;52.300;9.182;2023-06-14T06:41:18;17.60;;;16.30;;
4182;SDS011;2105;52.300;9.182;2023-06-14T06:43:45;16.87;;;15.70;;
4182;SDS011;2105;52.300;9.182;2023-06-14T06:46:13;16.60;;;15.53;;
4182;SDS011;2105;52.300;9.182;2023-06-14T06:48:40;17.60;;;16.40;;
4182;SDS011;2105;52.300;9.182;2023-06-14T06:51:06;16.50;;;15.40;;
4182;SDS011;2105;52.300;9.182;2023-06-14T06:53:33;17.00;;;15.90;;
4182;SDS011;2105;52.300;9.182;2023-06-14T06:55:59;16.47;;;15.30;;
4182;SDS011;2105;52.300;9.182;2023-06-14T06:58:26;17.47;;;16.17;;
4182;SDS011;2105;52.300;9.182;2023-06-14T07:00:53;16.53;;;15.20;;
4182;SDS011;2105;52.300;9.182;2023-06-14T07:03:21;16.77;;;15.67;;
4182;SDS011;2105;52.300;9.182;2023-06-14T07:05:48;16.20;;;15.10;;
4182;SDS011;2105;52.300;9.182;2023-06-14T07:08:14;16.27;;;15.17;;
4182;SDS011;2105;52.300;9.182;2023-06-14T07:10:41;17.30;;;15.80;;
4182;SDS011;2105;52.300;9.182;2023-06-14T07:13:08;16.43;;;15.30;;
4182;SDS011;2105;52.300;9.182;2023-06-14T07:15:34;16.50;;;14.90;;
4182;SDS011;2105;52.300;9.182;2023-06-14T07:18:01;16.03;;;14.70;;
4182;SDS011;2105;52.300;9.182;2023-06-14T07:20:30;16.33;;;14.73;;
4182;SDS011;2105;52.300;9.182;2023-06-14T07:22:58;16.40;;;15.10;;
4182;SDS011;2105;52.300;9.182;2023-06-14T07:25:25;16.13;;;14.70;;
4182;SDS011;2105;52.300;9.182;2023-06-14T07:27:52;16.47;;;15.13;;
4182;SDS011;2105;52.300;9.182;2023-06-14T07:30:18;16.60;;;15.27;;
4182;SDS011;2105;52.300;9.182;2023-06-14T07:32:45;15.80;;;14.80;;
4182;SDS011;2105;52.300;9.182;2023-06-14T07:35:12;16.17;;;15.13;;
4182;SDS011;2105;52.300;9.182;2023-06-14T07:37:40;16.03;;;14.70;;
4182;SDS011;2105;52.300;9.182;2023-06-14T07:40:07;16.50;;;15.37;;
4182;SDS011;2105;52.300;9.182;2023-06-14T07:42:35;16.47;;;15.20;;
4182;SDS011;2105;52.300;9.182;2023-06-14T07:45:02;16.97;;;15.77;;
4182;SDS011;2105;52.300;9.182;2023-06-14T07:47:29;16.20;;;15.00;;
4182;SDS011;2105;52.300;9.182;2023-06-14T07:49:55;16.30;;;15.20;;
4182;SDS011;2105;52.300;9.182;2023-06-14T07:52:22;16.67;;;15.47;;
4182;SDS011;2105;52.300;9.182;2023-06-14T07:54:50;17.43;;;15.87;;
4182;SDS011;2105;52.300;9.182;2023-06-14T07:57:17;16.97;;;15.70;;
4182;SDS011;2105;52.300;9.182;2023-06-14T07:59:45;16.80;;;15.60;;
4182;SDS011;2105;52.300;9.182;2023-06-14T08:02:11;16.47;;;15.27;;
4182;SDS011;2105;52.300;9.182;2023-06-14T08:04:38;16.67;;;15.53;;
4182;SDS011;2105;52.300;9.182;2023-06-14T08:07:05;16.73;;;15.50;;
4182;SDS011;2105;52.300;9.182;2023-06-14T08:09:32;16.97;;;15.80;;
4182;SDS011;2105;52.300;9.182;2023-06-14T08:12:00;16.50;;;15.40;;
4182;SDS011;2105;52.300;9.182;2023-06-14T08:14:27;16.30;;;15.30;;
4182;SDS011;2105;52.300;9.182;2023-06-14T08:16:54;16.87;;;15.77;;
4182;SDS011;2105;52.300;9.182;2023-06-14T08:19:21;16.60;;;15.50;;
4182;SDS011;2105;52.300;9.182;2023-06-14T08:21:47;16.50;;;15.30;;
4182;SDS011;2105;52.300;9.182;2023-06-14T08:24:15;16.90;;;15.50;;
4182;SDS011;2105;52.300;9.182;2023-06-14T08:26:43;17.40;;;16.00;;
4182;SDS011;2105;52.300;9.182;2023-06-14T08:29:11;16.77;;;15.50;;
4182;SDS011;2105;52.300;9.182;2023-06-14T08:31:38;16.10;;;14.87;;
4182;SDS011;2105;52.300;9.182;2023-06-14T08:34:05;17.33;;;15.80;;
4182;SDS011;2105;52.300;9.182;2023-06-14T08:36:32;16.70;;;15.50;;
4182;SDS011;2105;52.300;9.182;2023-06-14T08:38:59;17.07;;;15.77;;
4182;SDS011;2105;52.300;9.182;2023-06-14T08:41:25;17.30;;;15.60;;
4182;SDS011;2105;52.300;9.182;2023-06-14T08:43:54;16.70;;;15.47;;
4182;SDS011;2105;52.300;9.182;2023-06-14T08:46:22;17.30;;;16.10;;
4182;SDS011;2105;52.300;9.182;2023-06-14T08:48:52;17.37;;;16.17;;
4182;SDS011;2105;52.300;9.182;2023-06-14T08:51:22;17.10;;;15.90;;
4182;SDS011;2105;52.300;9.182;2023-06-14T08:53:52;16.30;;;15.30;;
4182;SDS011;2105;52.300;9.182;2023-06-14T08:56:22;16.80;;;15.50;;
4182;SDS011;2105;52.300;9.182;2023-06-14T08:58:52;17.23;;;16.03;;
4182;SDS011;2105;52.300;9.182;2023-06-14T09:01:20;17.93;;;16.43;;
4182;SDS011;2105;52.300;9.182;2023-06-14T09:03:48;16.87;;;15.57;;
4182;SDS011;2105;52.300;9.182;2023-06-14T09:06:16;17.10;;;15.47;;
4182;SDS011;2105;52.300;9.182;2023-06-14T09:08:43;16.23;;;15.00;;
4182;SDS011;2105;52.300;9.182;2023-06-14T09:11:12;16.20;;;14.97;;
4182;SDS011;2105;52.300;9.182;2023-06-14T09:13:41;17.17;;;15.77;;
4182;SDS011;2105;52.300;9.182;2023-06-14T09:16:08;17.40;;;16.10;;
4182;SDS011;2105;52.300;9.182;2023-06-14T09:18:35;16.90;;;15.80;;
4182;SDS011;2105;52.300;9.182;2023-06-14T09:21:04;17.37;;;16.00;;
4182;SDS011;2105;52.300;9.182;2023-06-14T09:23:33;17.13;;;15.83;;
4182;SDS011;2105;52.300;9.182;2023-06-14T09:26:06;16.50;;;15.40;;
4182;SDS011;2105;52.300;9.182;2023-06-14T09:28:33;17.00;;;15.80;;
4182;SDS011;2105;52.300;9.182;2023-06-14T09:31:00;17.17;;;15.77;;
4182;SDS011;2105;52.300;9.182;2023-06-14T09:33:27;17.30;;;16.10;;
4182;SDS011;2105;52.300;9.182;2023-06-14T09:35:54;17.70;;;16.37;;
4182;SDS011;2105;52.300;9.182;2023-06-14T09:38:23;18.13;;;16.50;;
4182;SDS011;2105;52.300;9.182;2023-06-14T09:40:51;17.00;;;15.80;;
4182;SDS011;2105;52.300;9.182;2023-06-14T09:43:17;17.33;;;16.23;;
4182;SDS011;2105;52.300;9.182;2023-06-14T09:45:47;16.93;;;15.77;;
4182;SDS011;2105;52.300;9.182;2023-06-14T09:48:14;16.67;;;15.60;;
4182;SDS011;2105;52.300;9.182;2023-06-14T09:50:43;16.87;;;15.77;;
4182;SDS011;2105;52.300;9.182;2023-06-14T09:53:12;18.17;;;16.27;;
4182;SDS011;2105;52.300;9.182;2023-06-14T09:55:42;17.23;;;16.03;;
4182;SDS011;2105;52.300;9.182;2023-06-14T09:58:09;17.33;;;15.60;;
4182;SDS011;2105;52.300;9.182;2023-06-14T10:00:38;16.10;;;15.00;;
4182;SDS011;2105;52.300;9.182;2023-06-14T10:03:07;16.30;;;15.30;;
4182;SDS011;2105;52.300;9.182;2023-06-14T10:05:39;17.63;;;16.23;;
4182;SDS011;2105;52.300;9.182;2023-06-14T10:08:10;18.00;;;16.60;;
4182;SDS011;2105;52.300;9.182;2023-06-14T10:10:42;16.63;;;15.53;;
4182;SDS011;2105;52.300;9.182;2023-06-14T10:13:09;17.10;;;15.90;;
4182;SDS011;2105;52.300;9.182;2023-06-14T10:15:38;16.90;;;15.80;;
4182;SDS011;2105;52.300;9.182;2023-06-14T10:18:14;17.90;;;16.40;;
4182;SDS011;2105;52.300;9.182;2023-06-14T10:20:49;17.37;;;16.07;;
4182;SDS011;2105;52.300;9.182;2023-06-14T10:23:22;17.17;;;15.97;;
4182;SDS011;2105;52.300;9.182;2023-06-14T10:25:52;17.80;;;16.50;;
4182;SDS011;2105;52.300;9.182;2023-06-14T10:28:21;17.60;;;16.40;;
4182;SDS011;2105;52.300;9.182;2023-06-14T10:31:05;18.50;;;17.00;;
4182;SDS011;2105;52.300;9.182;2023-06-14T10:33:33;17.50;;;16.20;;
4182;SDS011;2105;52.300;9.182;2023-06-14T10:36:07;17.73;;;16.50;;
4182;SDS011;2105;52.300;9.182;2023-06-14T10:38:59;17.50;;;16.30;;
4182;SDS011;2105;52.300;9.182;2023-06-14T10:41:34;17.13;;;15.70;;
4182;SDS011;2105;52.300;9.182;2023-06-14T10:47:09;16.50;;;15.30;;
4182;SDS011;2105;52.300;9.182;2023-06-14T10:49:41;16.50;;;15.50;;
4182;SDS011;2105;52.300;9.182;2023-06-14T10:52:10;17.10;;;16.00;;
4182;SDS011;2105;52.300;9.182;2023-06-14T10:57:42;17.83;;;16.53;;
4182;SDS011;2105;52.300;9.182;2023-06-14T11:00:11;17.60;;;16.30;;
4182;SDS011;2105;52.300;9.182;2023-06-14T11:05:50;18.13;;;16.30;;
4182;SDS011;2105;52.300;9.182;2023-06-14T11:08:27;17.40;;;16.03;;
4182;SDS011;2105;52.300;9.182;2023-06-14T11:11:06;18.50;;;17.20;;
4182;SDS011;2105;52.300;9.182;2023-06-14T11:13:35;18.57;;;16.93;;
4182;SDS011;2105;52.300;9.182;2023-06-14T11:16:06;17.93;;;16.30;;
4182;SDS011;2105;52.300;9.182;2023-06-14T11:18:36;17.87;;;16.50;;
4182;SDS011;2105;52.300;9.182;2023-06-14T11:21:03;18.07;;;16.70;;
4182;SDS011;2105;52.300;9.182;2023-06-14T11:23:30;17.50;;;16.20;;
4182;SDS011;2105;52.300;9.182;2023-06-14T11:25:56;18.03;;;16.40;;
4182;SDS011;2105;52.300;9.182;2023-06-14T11:28:23;17.13;;;16.03;;
4182;SDS011;2105;52.300;9.182;2023-06-14T11:31:00;18.23;;;16.40;;
4182;SDS011;2105;52.300;9.182;2023-06-14T11:33:28;17.83;;;16.53;;
4182;SDS011;2105;52.300;9.182;2023-06-14T11:35:54;19.60;;;16.50;;
4182;SDS011;2105;52.300;9.182;2023-06-14T11:38:21;18.33;;;16.90;;
4182;SDS011;2105;52.300;9.182;2023-06-14T11:40:48;18.70;;;17.30;;
4182;SDS011;2105;52.300;9.182;2023-06-14T11:43:15;18.20;;;16.90;;
4182;SDS011;2105;52.300;9.182;2023-06-14T11:45:42;18.73;;;17.23;;
4182;SDS011;2105;52.300;9.182;2023-06-14T11:48:10;18.23;;;16.83;;
4182;SDS011;2105;52.300;9.182;2023-06-14T11:50:37;18.80;;;17.27;;
4182;SDS011;2105;52.300;9.182;2023-06-14T11:53:04;18.70;;;17.10;;
4182;SDS011;2105;52.300;9.182;2023-06-14T11:55:35;18.40;;;17.10;;
4182;SDS011;2105;52.300;9.182;2023-06-14T11:58:03;18.07;;;16.80;;
4182;SDS011;2105;52.300;9.182;2023-06-14T12:00:30;18.40;;;17.10;;
4182;SDS011;2105;52.300;9.182;2023-06-14T12:02:57;18.20;;;16.90;;
4182;SDS011;2105;52.300;9.182;2023-06-14T12:05:25;18.93;;;17.07;;
4182;SDS011;2105;52.300;9.182;2023-06-14T12:07:57;18.40;;;17.03;;
4182;SDS011;2105;52.300;9.182;2023-06-14T12:10:25;18.40;;;17.00;;
4182;SDS011;2105;52.300;9.182;2023-06-14T12:12:56;18.70;;;17.20;;
4182;SDS011;2105;52.300;9.182;2023-06-14T12:15:23;17.50;;;16.20;;
4182;SDS011;2105;52.300;9.182;2023-06-14T12:17:50;19.07;;;17.20;;
4182;SDS011;2105;52.300;9.182;2023-06-14T12:20:17;18.87;;;17.10;;
4182;SDS011;2105;52.300;9.182;2023-06-14T12:22:50;18.37;;;16.87;;
4182;SDS011;2105;52.300;9.182;2023-06-14T12:25:27;21.40;;;17.17;;
4182;SDS011;2105;52.300;9.182;2023-06-14T12:27:57;18.70;;;17.13;;
4182;SDS011;2105;52.300;9.182;2023-06-14T12:30:24;19.10;;;17.70;;
4182;SDS011;2105;52.300;9.182;2023-06-14T12:32:51;18.50;;;17.10;;
4182;SDS011;2105;52.300;9.182;2023-06-14T12:35:18;18.40;;;17.10;;
4182;SDS011;2105;52.300;9.182;2023-06-14T12:37:45;19.27;;;17.43;;
4182;SDS011;2105;52.300;9.182;2023-06-14T12:40:13;18.10;;;16.90;;
4182;SDS011;2105;52.300;9.182;2023-06-14T12:42:40;18.87;;;17.27;;
4182;SDS011;2105;52.300;9.182;2023-06-14T12:45:07;18.23;;;17.03;;
4182;SDS011;2105;52.300;9.182;2023-06-14T12:47:35;18.73;;;17.33;;
4182;SDS011;2105;52.300;9.182;2023-06-14T12:50:02;18.83;;;17.10;;
4182;SDS011;2105;52.300;9.182;2023-06-14T12:52:29;18.87;;;17.23;;
4182;SDS011;2105;52.300;9.182;2023-06-14T12:54:55;19.50;;;18.10;;
4182;SDS011;2105;52.300;9.182;2023-06-14T12:57:24;19.57;;;17.97;;
4182;SDS011;2105;52.300;9.182;2023-06-14T12:59:50;18.73;;;17.13;;
4182;SDS011;2105;52.300;9.182;2023-06-14T13:02:18;18.73;;;17.50;;
4182;SDS011;2105;52.300;9.182;2023-06-14T13:04:47;18.00;;;16.40;;
4182;SDS011;2105;52.300;9.182;2023-06-14T13:07:14;19.33;;;17.67;;
4182;SDS011;2105;52.300;9.182;2023-06-14T13:09:41;17.70;;;16.50;;
4182;SDS011;2105;52.300;9.182;2023-06-14T13:12:08;18.13;;;16.93;;
4182;SDS011;2105;52.300;9.182;2023-06-14T13:14:38;19.40;;;17.97;;
4182;SDS011;2105;52.300;9.182;2023-06-14T13:17:05;19.03;;;17.50;;
4182;SDS011;2105;52.300;9.182;2023-06-14T13:19:34;18.97;;;17.23;;
4182;SDS011;2105;52.300;9.182;2023-06-14T13:22:01;18.77;;;17.17;;
4182;SDS011;2105;52.300;9.182;2023-06-14T13:24:27;18.93;;;17.17;;
4182;SDS011;2105;52.300;9.182;2023-06-14T13:26:55;18.27;;;16.70;;
4182;SDS011;2105;52.300;9.182;2023-06-14T13:29:22;18.60;;;17.10;;
4182;SDS011;2105;52.300;9.182;2023-06-14T13:31:50;18.63;;;17.23;;
4182;SDS011;2105;52.300;9.182;2023-06-14T13:34:17;18.77;;;17.27;;
4182;SDS011;2105;52.300;9.182;2023-06-14T13:36:44;19.00;;;17.60;;
4182;SDS011;2105;52.300;9.182;2023-06-14T13:39:10;19.20;;;17.53;;
4182;SDS011;2105;52.300;9.182;2023-06-14T13:41:37;19.50;;;17.83;;
4182;SDS011;2105;52.300;9.182;2023-06-14T13:44:04;18.70;;;17.30;;
4182;SDS011;2105;52.300;9.182;2023-06-14T13:46:31;18.90;;;17.30;;
4182;SDS011;2105;52.300;9.182;2023-06-14T13:48:59;19.87;;;17.90;;
4182;SDS011;2105;52.300;9.182;2023-06-14T13:51:27;19.50;;;17.60;;
4182;SDS011;2105;52.300;9.182;2023-06-14T13:53:54;19.37;;;17.77;;
4182;SDS011;2105;52.300;9.182;2023-06-14T13:56:20;18.13;;;16.73;;
4182;SDS011;2105;52.300;9.182;2023-06-14T13:58:49;18.87;;;17.30;;
4182;SDS011;2105;52.300;9.182;2023-06-14T14:01:16;19.00;;;17.23;;
4182;SDS011;2105;52.300;9.182;2023-06-14T14:03:44;18.90;;;17.30;;
4182;SDS011;2105;52.300;9.182;2023-06-14T14:06:13;18.60;;;17.20;;
4182;SDS011;2105;52.300;9.182;2023-06-14T14:08:39;19.40;;;17.67;;
4182;SDS011;2105;52.300;9.182;2023-06-14T14:11:06;19.20;;;17.70;;
4182;SDS011;2105;52.300;9.182;2023-06-14T14:13:33;19.30;;;17.60;;
4182;SDS011;2105;52.300;9.182;2023-06-14T14:16:01;21.83;;;17.77;;
4182;SDS011;2105;52.300;9.182;2023-06-14T14:18:28;18.93;;;17.53;;
4182;SDS011;2105;52.300;9.182;2023-06-14T14:20:55;19.50;;;17.83;;
4182;SDS011;2105;52.300;9.182;2023-06-14T14:23:24;19.47;;;17.87;;
4182;SDS011;2105;52.300;9.182;2023-06-14T14:25:51;19.47;;;17.60;;
4182;SDS011;2105;52.300;9.182;2023-06-14T14:28:18;19.40;;;17.97;;
4182;SDS011;2105;52.300;9.182;2023-06-14T14:30:45;19.80;;;18.00;;
4182;SDS011;2105;52.300;9.182;2023-06-14T14:33:12;19.93;;;18.03;;
4182;SDS011;2105;52.300;9.182;2023-06-14T14:35:40;19.33;;;17.93;;
4182;SDS011;2105;52.300;9.182;2023-06-14T14:38:08;19.47;;;17.97;;
4182;SDS011;2105;52.300;9.182;2023-06-14T14:40:36;19.53;;;17.90;;
4182;SDS011;2105;52.300;9.182;2023-06-14T14:43:02;19.30;;;17.80;;
4182;SDS011;2105;52.300;9.182;2023-06-14T14:45:30;19.93;;;18.43;;
4182;SDS011;2105;52.300;9.182;2023-06-14T14:47:56;19.73;;;17.90;;
4182;SDS011;2105;52.300;9.182;2023-06-14T14:50:24;20.50;;;18.63;;
4182;SDS011;2105;52.300;9.182;2023-06-14T14:52:51;19.33;;;17.73;;
4182;SDS011;2105;52.300;9.182;2023-06-14T14:55:18;19.97;;;18.17;;
4182;SDS011;2105;52.300;9.182;2023-06-14T14:57:46;19.43;;;17.60;;
4182;SDS011;2105;52.300;9.182;2023-06-14T15:00:13;20.70;;;19.10;;
4182;SDS011;2105;52.300;9.182;2023-06-14T15:02:40;19.50;;;18.00;;
4182;SDS011;2105;52.300;9.182;2023-06-14T15:05:07;20.03;;;18.37;;